sensor_id;sensor_type;location;lat;lon;timestamp;P1;durP1;ratioP1;P2;durP2;ratioP2
60867;SDS011;46702;48.370;10.794;2022-11-24T00:01:32;3.67;;;2.33;;
60867;SDS011;46702;48.370;10.794;2022-11-24T00:03:59;1.85;;;1.75;;
60867;SDS011;46702;48.370;10.794;2022-11-24T00:06:26;2.38;;;2.28;;
60867;SDS011;46702;48.370;10.794;2022-11-24T00:08:53;1.88;;;1.77;;
60867;SDS011;46702;48.370;10.794;2022-11-24T00:11:20;1.95;;;1.33;;
60867;SDS011;46702;48.370;10.794;2022-11-24T00:13:48;1.38;;;1.30;;
60867;SDS011;46702;48.370;10.794;2022-11-24T00:16:18;2.95;;;2.28;;
60867;SDS011;46702;48.370;10.794;2022-11-24T00:18:52;2.05;;;1.50;;
60867;SDS011;46702;48.370;10.794;2022-11-24T00:21:19;2.07;;;1.93;;
60867;SDS011;46702;48.370;10.794;2022-11-24T00:23:45;2.67;;;1.85;;
60867;SDS011;46702;48.370;10.794;2022-11-24T00:26:13;1.77;;;1.33;;
60867;SDS011;46702;48.370;10.794;2022-11-24T00:28:44;3.90;;;2.17;;
60867;SDS011;46702;48.370;10.794;2022-11-24T00:31:15;3.83;;;2.50;;
60867;SDS011;46702;48.370;10.794;2022-11-24T00:33:40;1.30;;;0.88;;
60867;SDS011;46702;48.370;10.794;2022-11-24T00:36:06;3.40;;;1.67;;
60867;SDS011;46702;48.370;10.794;2022-11-24T00:38:32;1.95;;;1.85;;
60867;SDS011;46702;48.370;10.794;2022-11-24T00:40:57;3.65;;;1.73;;
60867;SDS011;46702;48.370;10.794;2022-11-24T00:43:23;4.10;;;1.85;;
60867;SDS011;46702;48.370;10.794;2022-11-24T00:45:49;1.48;;;1.15;;
60867;SDS011;46702;48.370;10.794;2022-11-24T00:48:14;4.28;;;1.95;;
60867;SDS011;46702;48.370;10.794;2022-11-24T00:50:40;4.97;;;2.00;;
60867;SDS011;46702;48.370;10.794;2022-11-24T00:53:06;2.17;;;1.73;;
60867;SDS011;46702;48.370;10.794;2022-11-24T00:55:31;4.57;;;2.63;;
60867;SDS011;46702;48.370;10.794;2022-11-24T00:57:57;1.80;;;1.70;;
60867;SDS011;46702;48.370;10.794;2022-11-24T01:00:22;2.38;;;2.17;;
60867;SDS011;46702;48.370;10.794;2022-11-24T01:02:48;2.67;;;1.40;;
60867;SDS011;46702;48.370;10.794;2022-11-24T01:05:14;2.30;;;1.98;;
60867;SDS011;46702;48.370;10.794;2022-11-24T01:07:39;2.45;;;1.75;;
60867;SDS011;46702;48.370;10.794;2022-11-24T01:10:05;4.30;;;2.13;;
60867;SDS011;46702;48.370;10.794;2022-11-24T01:12:31;1.83;;;1.73;;
60867;SDS011;46702;48.370;10.794;2022-11-24T01:14:57;6.32;;;3.30;;
60867;SDS011;46702;48.370;10.794;2022-11-24T01:17:22;3.70;;;2.10;;
60867;SDS011;46702;48.370;10.794;2022-11-24T01:19:48;2.15;;;2.05;;
60867;SDS011;46702;48.370;10.794;2022-11-24T01:22:14;1.00;;;1.00;;
60867;SDS011;46702;48.370;10.794;2022-11-24T01:24:40;2.15;;;1.35;;
60867;SDS011;46702;48.370;10.794;2022-11-24T01:27:06;2.83;;;2.05;;
60867;SDS011;46702;48.370;10.794;2022-11-24T01:29:32;2.15;;;1.90;;
60867;SDS011;46702;48.370;10.794;2022-11-24T01:31:58;1.58;;;1.48;;
60867;SDS011;46702;48.370;10.794;2022-11-24T01:34:24;1.67;;;1.33;;
60867;SDS011;46702;48.370;10.794;2022-11-24T01:36:49;1.73;;;1.42;;
60867;SDS011;46702;48.370;10.794;2022-11-24T01:39:15;5.45;;;1.95;;
60867;SDS011;46702;48.370;10.794;2022-11-24T01:41:40;6.70;;;2.03;;
60867;SDS011;46702;48.370;10.794;2022-11-24T01:44:25;1.98;;;1.88;;
60867;SDS011;46702;48.370;10.794;2022-11-24T01:46:57;3.20;;;1.95;;
60867;SDS011;46702;48.370;10.794;2022-11-24T01:50:03;1.67;;;1.58;;
60867;SDS011;46702;48.370;10.794;2022-11-24T01:55:02;3.85;;;1.25;;
60867;SDS011;46702;48.370;10.794;2022-11-24T01:57:34;2.20;;;1.95;;
60867;SDS011;46702;48.370;10.794;2022-11-24T02:00:07;1.50;;;1.40;;
60867;SDS011;46702;48.370;10.794;2022-11-24T02:02:35;3.42;;;1.77;;
60867;SDS011;46702;48.370;10.794;2022-11-24T02:05:02;2.13;;;1.63;;
60867;SDS011;46702;48.370;10.794;2022-11-24T02:07:34;1.67;;;1.42;;
60867;SDS011;46702;48.370;10.794;2022-11-24T02:10:02;4.22;;;2.00;;
60867;SDS011;46702;48.370;10.794;2022-11-24T02:12:32;2.33;;;1.70;;
60867;SDS011;46702;48.370;10.794;2022-11-24T02:14:59;6.35;;;2.00;;
60867;SDS011;46702;48.370;10.794;2022-11-24T02:17:25;3.92;;;2.10;;
60867;SDS011;46702;48.370;10.794;2022-11-24T02:19:54;1.60;;;1.35;;
60867;SDS011;46702;48.370;10.794;2022-11-24T02:22:26;1.80;;;1.40;;
60867;SDS011;46702;48.370;10.794;2022-11-24T02:24:56;3.45;;;1.88;;
60867;SDS011;46702;48.370;10.794;2022-11-24T02:27:41;2.10;;;1.88;;
60867;SDS011;46702;48.370;10.794;2022-11-24T02:30:08;2.60;;;1.65;;
60867;SDS011;46702;48.370;10.794;2022-11-24T02:32:34;0.75;;;0.73;;
60867;SDS011;46702;48.370;10.794;2022-11-24T02:35:05;1.45;;;1.35;;
60867;SDS011;46702;48.370;10.794;2022-11-24T02:37:32;2.63;;;1.90;;
60867;SDS011;46702;48.370;10.794;2022-11-24T02:39:57;4.43;;;2.15;;
60867;SDS011;46702;48.370;10.794;2022-11-24T02:42:23;3.65;;;2.50;;
60867;SDS011;46702;48.370;10.794;2022-11-24T02:44:51;3.38;;;1.70;;
60867;SDS011;46702;48.370;10.794;2022-11-24T02:47:21;2.47;;;1.80;;
60867;SDS011;46702;48.370;10.794;2022-11-24T02:49:49;1.70;;;1.60;;
60867;SDS011;46702;48.370;10.794;2022-11-24T02:52:15;3.25;;;1.80;;
60867;SDS011;46702;48.370;10.794;2022-11-24T02:54:41;2.53;;;1.60;;
60867;SDS011;46702;48.370;10.794;2022-11-24T02:57:06;3.92;;;1.70;;
60867;SDS011;46702;48.370;10.794;2022-11-24T02:59:32;3.55;;;1.77;;
60867;SDS011;46702;48.370;10.794;2022-11-24T03:01:57;1.70;;;1.60;;
60867;SDS011;46702;48.370;10.794;2022-11-24T03:04:23;3.80;;;1.73;;
60867;SDS011;46702;48.370;10.794;2022-11-24T03:06:48;1.75;;;1.35;;
60867;SDS011;46702;48.370;10.794;2022-11-24T03:09:14;1.88;;;1.55;;
60867;SDS011;46702;48.370;10.794;2022-11-24T03:11:40;1.15;;;1.05;;
60867;SDS011;46702;48.370;10.794;2022-11-24T03:14:05;1.60;;;1.50;;
60867;SDS011;46702;48.370;10.794;2022-11-24T03:16:31;2.42;;;1.73;;
60867;SDS011;46702;48.370;10.794;2022-11-24T03:18:58;2.63;;;1.77;;
60867;SDS011;46702;48.370;10.794;2022-11-24T03:21:24;2.78;;;1.70;;
60867;SDS011;46702;48.370;10.794;2022-11-24T03:23:50;4.00;;;1.67;;
60867;SDS011;46702;48.370;10.794;2022-11-24T03:26:17;1.75;;;1.10;;
60867;SDS011;46702;48.370;10.794;2022-11-24T03:28:44;0.98;;;0.98;;
60867;SDS011;46702;48.370;10.794;2022-11-24T03:31:10;0.43;;;0.43;;
60867;SDS011;46702;48.370;10.794;2022-11-24T03:33:36;1.10;;;1.10;;
60867;SDS011;46702;48.370;10.794;2022-11-24T03:36:02;1.30;;;1.20;;
60867;SDS011;46702;48.370;10.794;2022-11-24T03:38:29;1.02;;;1.02;;
60867;SDS011;46702;48.370;10.794;2022-11-24T03:40:54;2.65;;;1.10;;
60867;SDS011;46702;48.370;10.794;2022-11-24T03:43:20;1.02;;;1.02;;
60867;SDS011;46702;48.370;10.794;2022-11-24T03:45:46;1.17;;;0.88;;
60867;SDS011;46702;48.370;10.794;2022-11-24T03:48:13;1.45;;;1.13;;
60867;SDS011;46702;48.370;10.794;2022-11-24T03:50:40;0.50;;;0.50;;
60867;SDS011;46702;48.370;10.794;2022-11-24T03:53:06;1.95;;;1.30;;
60867;SDS011;46702;48.370;10.794;2022-11-24T03:55:32;1.80;;;1.00;;
60867;SDS011;46702;48.370;10.794;2022-11-24T03:57:58;0.80;;;0.80;;
60867;SDS011;46702;48.370;10.794;2022-11-24T04:00:23;0.80;;;0.80;;
60867;SDS011;46702;48.370;10.794;2022-11-24T04:02:49;0.70;;;0.70;;
60867;SDS011;46702;48.370;10.794;2022-11-24T04:05:14;0.98;;;0.90;;
60867;SDS011;46702;48.370;10.794;2022-11-24T04:07:40;0.50;;;0.50;;
60867;SDS011;46702;48.370;10.794;2022-11-24T04:10:06;1.33;;;0.77;;
60867;SDS011;46702;48.370;10.794;2022-11-24T04:12:32;1.33;;;0.80;;
60867;SDS011;46702;48.370;10.794;2022-11-24T04:15:13;2.33;;;1.02;;
60867;SDS011;46702;48.370;10.794;2022-11-24T04:17:41;1.20;;;0.90;;
60867;SDS011;46702;48.370;10.794;2022-11-24T04:20:07;1.42;;;0.88;;
60867;SDS011;46702;48.370;10.794;2022-11-24T04:22:34;2.90;;;1.25;;
60867;SDS011;46702;48.370;10.794;2022-11-24T04:25:00;3.05;;;1.13;;
60867;SDS011;46702;48.370;10.794;2022-11-24T04:27:26;0.88;;;0.82;;
60867;SDS011;46702;48.370;10.794;2022-11-24T04:29:52;1.02;;;0.98;;
60867;SDS011;46702;48.370;10.794;2022-11-24T04:32:17;1.23;;;1.17;;
60867;SDS011;46702;48.370;10.794;2022-11-24T04:34:43;2.60;;;1.15;;
60867;SDS011;46702;48.370;10.794;2022-11-24T04:37:08;2.45;;;1.00;;
60867;SDS011;46702;48.370;10.794;2022-11-24T04:39:34;1.75;;;1.02;;
60867;SDS011;46702;48.370;10.794;2022-11-24T04:42:00;1.02;;;1.02;;
60867;SDS011;46702;48.370;10.794;2022-11-24T04:44:25;1.15;;;0.73;;
60867;SDS011;46702;48.370;10.794;2022-11-24T04:46:51;3.20;;;1.00;;
60867;SDS011;46702;48.370;10.794;2022-11-24T04:49:17;1.70;;;0.82;;
60867;SDS011;46702;48.370;10.794;2022-11-24T04:51:42;2.28;;;1.33;;
60867;SDS011;46702;48.370;10.794;2022-11-24T04:54:09;2.13;;;1.35;;
60867;SDS011;46702;48.370;10.794;2022-11-24T04:56:36;3.23;;;1.03;;
60867;SDS011;46702;48.370;10.794;2022-11-24T04:59:02;2.08;;;0.90;;
60867;SDS011;46702;48.370;10.794;2022-11-24T05:01:28;1.50;;;1.10;;
60867;SDS011;46702;48.370;10.794;2022-11-24T05:03:53;2.95;;;1.30;;
60867;SDS011;46702;48.370;10.794;2022-11-24T05:06:20;1.20;;;1.10;;
60867;SDS011;46702;48.370;10.794;2022-11-24T05:08:47;4.30;;;1.85;;
60867;SDS011;46702;48.370;10.794;2022-11-24T05:11:13;3.88;;;1.45;;
60867;SDS011;46702;48.370;10.794;2022-11-24T05:13:39;3.58;;;1.60;;
60867;SDS011;46702;48.370;10.794;2022-11-24T05:16:05;4.35;;;1.10;;
60867;SDS011;46702;48.370;10.794;2022-11-24T05:18:31;1.70;;;1.08;;
60867;SDS011;46702;48.370;10.794;2022-11-24T05:20:57;1.30;;;1.20;;
60867;SDS011;46702;48.370;10.794;2022-11-24T05:23:23;1.92;;;1.77;;
60867;SDS011;46702;48.370;10.794;2022-11-24T05:25:49;2.33;;;1.60;;
60867;SDS011;46702;48.370;10.794;2022-11-24T05:28:16;2.50;;;1.40;;
60867;SDS011;46702;48.370;10.794;2022-11-24T05:30:42;1.70;;;1.58;;
60867;SDS011;46702;48.370;10.794;2022-11-24T05:33:10;1.25;;;1.15;;
60867;SDS011;46702;48.370;10.794;2022-11-24T05:35:40;3.75;;;1.80;;
60867;SDS011;46702;48.370;10.794;2022-11-24T05:38:06;5.80;;;1.88;;
60867;SDS011;46702;48.370;10.794;2022-11-24T05:40:32;1.90;;;1.45;;
60867;SDS011;46702;48.370;10.794;2022-11-24T05:42:57;3.60;;;1.05;;
60867;SDS011;46702;48.370;10.794;2022-11-24T05:45:23;2.97;;;1.45;;
60867;SDS011;46702;48.370;10.794;2022-11-24T05:47:49;3.20;;;1.35;;
60867;SDS011;46702;48.370;10.794;2022-11-24T05:50:15;1.90;;;1.75;;
60867;SDS011;46702;48.370;10.794;2022-11-24T05:52:43;3.00;;;1.52;;
60867;SDS011;46702;48.370;10.794;2022-11-24T05:55:09;1.55;;;0.93;;
60867;SDS011;46702;48.370;10.794;2022-11-24T05:57:35;0.85;;;0.77;;
60867;SDS011;46702;48.370;10.794;2022-11-24T06:00:02;2.10;;;1.13;;
60867;SDS011;46702;48.370;10.794;2022-11-24T06:02:29;0.80;;;0.80;;
60867;SDS011;46702;48.370;10.794;2022-11-24T06:04:55;0.88;;;0.88;;
60867;SDS011;46702;48.370;10.794;2022-11-24T06:07:20;4.05;;;1.42;;
60867;SDS011;46702;48.370;10.794;2022-11-24T06:09:46;1.02;;;0.55;;
60867;SDS011;46702;48.370;10.794;2022-11-24T06:12:11;3.85;;;1.15;;
60867;SDS011;46702;48.370;10.794;2022-11-24T06:14:37;4.20;;;1.80;;
60867;SDS011;46702;48.370;10.794;2022-11-24T06:17:03;1.40;;;1.30;;
60867;SDS011;46702;48.370;10.794;2022-11-24T06:19:29;5.30;;;1.50;;
60867;SDS011;46702;48.370;10.794;2022-11-24T06:21:55;5.68;;;1.20;;
60867;SDS011;46702;48.370;10.794;2022-11-24T06:24:21;5.28;;;1.40;;
60867;SDS011;46702;48.370;10.794;2022-11-24T06:26:47;4.72;;;1.20;;
60867;SDS011;46702;48.370;10.794;2022-11-24T06:29:13;2.47;;;1.23;;
60867;SDS011;46702;48.370;10.794;2022-11-24T06:31:39;3.72;;;1.17;;
60867;SDS011;46702;48.370;10.794;2022-11-24T06:34:05;2.08;;;0.77;;
60867;SDS011;46702;48.370;10.794;2022-11-24T06:36:31;5.13;;;1.52;;
60867;SDS011;46702;48.370;10.794;2022-11-24T06:38:59;5.60;;;1.65;;
60867;SDS011;46702;48.370;10.794;2022-11-24T06:41:26;2.58;;;1.15;;
60867;SDS011;46702;48.370;10.794;2022-11-24T06:43:52;1.10;;;1.05;;
60867;SDS011;46702;48.370;10.794;2022-11-24T06:46:17;5.00;;;1.77;;
60867;SDS011;46702;48.370;10.794;2022-11-24T06:48:43;3.38;;;1.70;;
60867;SDS011;46702;48.370;10.794;2022-11-24T06:51:09;4.72;;;2.00;;
60867;SDS011;46702;48.370;10.794;2022-11-24T06:53:39;7.93;;;2.30;;
60867;SDS011;46702;48.370;10.794;2022-11-24T06:56:06;6.03;;;1.58;;
60867;SDS011;46702;48.370;10.794;2022-11-24T06:58:39;13.07;;;1.52;;
60867;SDS011;46702;48.370;10.794;2022-11-24T07:01:06;3.60;;;1.80;;
60867;SDS011;46702;48.370;10.794;2022-11-24T07:03:32;2.95;;;2.08;;
60867;SDS011;46702;48.370;10.794;2022-11-24T07:05:57;2.05;;;1.02;;
60867;SDS011;46702;48.370;10.794;2022-11-24T07:08:23;1.38;;;1.17;;
60867;SDS011;46702;48.370;10.794;2022-11-24T07:10:50;4.47;;;2.28;;
60867;SDS011;46702;48.370;10.794;2022-11-24T07:13:18;3.10;;;1.15;;
60867;SDS011;46702;48.370;10.794;2022-11-24T07:15:45;3.88;;;1.50;;
60867;SDS011;46702;48.370;10.794;2022-11-24T07:18:10;4.30;;;1.65;;
60867;SDS011;46702;48.370;10.794;2022-11-24T07:20:36;3.35;;;1.52;;
60867;SDS011;46702;48.370;10.794;2022-11-24T07:23:02;3.20;;;1.63;;
60867;SDS011;46702;48.370;10.794;2022-11-24T07:25:27;2.58;;;1.30;;
60867;SDS011;46702;48.370;10.794;2022-11-24T07:27:57;3.50;;;1.58;;
60867;SDS011;46702;48.370;10.794;2022-11-24T07:30:24;5.35;;;1.58;;
60867;SDS011;46702;48.370;10.794;2022-11-24T07:32:50;1.90;;;1.20;;
60867;SDS011;46702;48.370;10.794;2022-11-24T07:35:22;2.35;;;1.85;;
60867;SDS011;46702;48.370;10.794;2022-11-24T07:37:47;8.00;;;2.08;;
60867;SDS011;46702;48.370;10.794;2022-11-24T07:40:13;1.20;;;1.17;;
60867;SDS011;46702;48.370;10.794;2022-11-24T07:42:38;2.22;;;1.25;;
60867;SDS011;46702;48.370;10.794;2022-11-24T07:45:04;2.95;;;1.45;;
60867;SDS011;46702;48.370;10.794;2022-11-24T07:47:30;1.25;;;0.77;;
60867;SDS011;46702;48.370;10.794;2022-11-24T07:49:56;1.98;;;1.35;;
60867;SDS011;46702;48.370;10.794;2022-11-24T07:52:21;1.40;;;0.65;;
60867;SDS011;46702;48.370;10.794;2022-11-24T07:54:50;9.63;;;1.13;;
60867;SDS011;46702;48.370;10.794;2022-11-24T07:57:16;5.75;;;1.17;;
60867;SDS011;46702;48.370;10.794;2022-11-24T07:59:42;1.42;;;1.30;;
60867;SDS011;46702;48.370;10.794;2022-11-24T08:02:08;1.35;;;1.20;;
60867;SDS011;46702;48.370;10.794;2022-11-24T08:04:36;3.83;;;1.45;;
60867;SDS011;46702;48.370;10.794;2022-11-24T08:07:02;2.63;;;0.95;;
60867;SDS011;46702;48.370;10.794;2022-11-24T08:09:27;1.77;;;0.80;;
60867;SDS011;46702;48.370;10.794;2022-11-24T08:11:53;5.43;;;1.48;;
60867;SDS011;46702;48.370;10.794;2022-11-24T08:14:19;1.60;;;0.90;;
60867;SDS011;46702;48.370;10.794;2022-11-24T08:16:44;0.80;;;0.68;;
60867;SDS011;46702;48.370;10.794;2022-11-24T08:19:10;0.95;;;0.90;;
60867;SDS011;46702;48.370;10.794;2022-11-24T08:21:36;2.75;;;0.90;;
60867;SDS011;46702;48.370;10.794;2022-11-24T08:24:02;13.07;;;1.38;;
60867;SDS011;46702;48.370;10.794;2022-11-24T08:26:28;2.90;;;1.00;;
60867;SDS011;46702;48.370;10.794;2022-11-24T08:28:57;2.05;;;1.42;;
60867;SDS011;46702;48.370;10.794;2022-11-24T08:31:24;3.97;;;1.10;;
60867;SDS011;46702;48.370;10.794;2022-11-24T08:33:56;2.15;;;0.95;;
60867;SDS011;46702;48.370;10.794;2022-11-24T08:36:22;4.45;;;1.58;;
60867;SDS011;46702;48.370;10.794;2022-11-24T08:38:52;1.20;;;0.98;;
60867;SDS011;46702;48.370;10.794;2022-11-24T08:41:22;2.30;;;0.68;;
60867;SDS011;46702;48.370;10.794;2022-11-24T08:43:49;1.23;;;0.90;;
60867;SDS011;46702;48.370;10.794;2022-11-24T08:46:15;1.35;;;1.08;;
60867;SDS011;46702;48.370;10.794;2022-11-24T08:48:43;4.97;;;1.50;;
60867;SDS011;46702;48.370;10.794;2022-11-24T08:51:16;3.38;;;1.20;;
60867;SDS011;46702;48.370;10.794;2022-11-24T08:56:10;2.38;;;1.20;;
60867;SDS011;46702;48.370;10.794;2022-11-24T08:58:37;5.35;;;1.60;;
60867;SDS011;46702;48.370;10.794;2022-11-24T09:01:04;0.50;;;0.50;;
60867;SDS011;46702;48.370;10.794;2022-11-24T09:03:31;0.80;;;0.80;;
60867;SDS011;46702;48.370;10.794;2022-11-24T09:05:57;3.78;;;1.52;;
60867;SDS011;46702;48.370;10.794;2022-11-24T09:08:22;1.20;;;1.10;;
60867;SDS011;46702;48.370;10.794;2022-11-24T09:10:48;2.78;;;1.30;;
60867;SDS011;46702;48.370;10.794;2022-11-24T09:13:14;2.20;;;1.15;;
60867;SDS011;46702;48.370;10.794;2022-11-24T09:15:39;4.38;;;1.00;;
60867;SDS011;46702;48.370;10.794;2022-11-24T09:18:05;1.55;;;0.63;;
60867;SDS011;46702;48.370;10.794;2022-11-24T09:20:30;2.17;;;0.80;;
60867;SDS011;46702;48.370;10.794;2022-11-24T09:22:56;3.13;;;1.00;;
60867;SDS011;46702;48.370;10.794;2022-11-24T09:25:21;2.33;;;1.10;;
60867;SDS011;46702;48.370;10.794;2022-11-24T09:30:15;3.40;;;1.70;;
60867;SDS011;46702;48.370;10.794;2022-11-24T09:32:41;2.17;;;1.20;;
60867;SDS011;46702;48.370;10.794;2022-11-24T09:35:07;1.95;;;1.05;;
60867;SDS011;46702;48.370;10.794;2022-11-24T09:37:33;2.65;;;1.10;;
60867;SDS011;46702;48.370;10.794;2022-11-24T09:39:59;1.55;;;0.73;;
60867;SDS011;46702;48.370;10.794;2022-11-24T09:50:47;1.23;;;0.68;;
60867;SDS011;46702;48.370;10.794;2022-11-24T09:53:15;0.95;;;0.90;;
60867;SDS011;46702;48.370;10.794;2022-11-24T09:55:48;1.85;;;0.90;;
60867;SDS011;46702;48.370;10.794;2022-11-24T09:58:17;1.60;;;0.68;;
60867;SDS011;46702;48.370;10.794;2022-11-24T10:00:45;0.90;;;0.80;;
60867;SDS011;46702;48.370;10.794;2022-11-24T10:03:15;2.85;;;1.00;;
60867;SDS011;46702;48.370;10.794;2022-11-24T10:05:49;0.70;;;0.70;;
60867;SDS011;46702;48.370;10.794;2022-11-24T10:08:22;0.50;;;0.50;;
60867;SDS011;46702;48.370;10.794;2022-11-24T10:11:06;0.68;;;0.50;;
60867;SDS011;46702;48.370;10.794;2022-11-24T10:13:45;0.80;;;0.80;;
60867;SDS011;46702;48.370;10.794;2022-11-24T10:22:01;0.77;;;0.73;;
60867;SDS011;46702;48.370;10.794;2022-11-24T10:27:17;3.45;;;0.68;;
60867;SDS011;46702;48.370;10.794;2022-11-24T10:29:50;2.08;;;1.00;;
60867;SDS011;46702;48.370;10.794;2022-11-24T10:32:18;0.90;;;0.85;;
60867;SDS011;46702;48.370;10.794;2022-11-24T10:34:47;1.25;;;0.80;;
60867;SDS011;46702;48.370;10.794;2022-11-24T10:39:50;1.08;;;0.98;;
60867;SDS011;46702;48.370;10.794;2022-11-24T10:42:38;1.10;;;1.02;;
60867;SDS011;46702;48.370;10.794;2022-11-24T10:45:11;1.08;;;0.95;;
60867;SDS011;46702;48.370;10.794;2022-11-24T10:47:42;3.50;;;0.70;;
60867;SDS011;46702;48.370;10.794;2022-11-24T10:52:54;0.95;;;0.45;;
60867;SDS011;46702;48.370;10.794;2022-11-24T10:58:36;1.55;;;0.50;;
60867;SDS011;46702;48.370;10.794;2022-11-24T11:03:58;1.35;;;0.95;;
60867;SDS011;46702;48.370;10.794;2022-11-24T11:14:30;0.95;;;0.80;;
60867;SDS011;46702;48.370;10.794;2022-11-24T11:16:58;1.55;;;0.85;;
60867;SDS011;46702;48.370;10.794;2022-11-24T11:19:40;3.88;;;0.63;;
60867;SDS011;46702;48.370;10.794;2022-11-24T11:27:04;1.65;;;0.73;;
60867;SDS011;46702;48.370;10.794;2022-11-24T11:29:40;1.77;;;0.83;;
60867;SDS011;46702;48.370;10.794;2022-11-24T11:32:25;1.13;;;0.98;;
60867;SDS011;46702;48.370;10.794;2022-11-24T11:34:53;0.40;;;0.40;;
60867;SDS011;46702;48.370;10.794;2022-11-24T11:37:24;0.85;;;0.85;;
60867;SDS011;46702;48.370;10.794;2022-11-24T11:39:53;0.63;;;0.63;;
60867;SDS011;46702;48.370;10.794;2022-11-24T11:42:40;0.80;;;0.80;;
60867;SDS011;46702;48.370;10.794;2022-11-24T11:45:27;0.70;;;0.70;;
60867;SDS011;46702;48.370;10.794;2022-11-24T11:56:00;0.60;;;0.60;;
60867;SDS011;46702;48.370;10.794;2022-11-24T12:02:06;0.57;;;0.57;;
60867;SDS011;46702;48.370;10.794;2022-11-24T12:04:43;0.85;;;0.70;;
60867;SDS011;46702;48.370;10.794;2022-11-24T12:48:59;0.70;;;0.70;;
60867;SDS011;46702;48.370;10.794;2022-11-24T12:51:01;1.35;;;0.50;;
60867;SDS011;46702;48.370;10.794;2022-11-24T12:53:29;2.50;;;1.17;;
60867;SDS011;46702;48.370;10.794;2022-11-24T12:55:58;1.20;;;0.68;;
60867;SDS011;46702;48.370;10.794;2022-11-24T13:03:59;0.77;;;0.50;;
60867;SDS011;46702;48.370;10.794;2022-11-24T13:09:12;1.02;;;0.90;;
60867;SDS011;46702;48.370;10.794;2022-11-24T13:11:39;1.23;;;1.00;;
60867;SDS011;46702;48.370;10.794;2022-11-24T13:14:32;0.75;;;0.75;;
60867;SDS011;46702;48.370;10.794;2022-11-24T13:19:47;2.75;;;1.25;;
60867;SDS011;46702;48.370;10.794;2022-11-24T13:22:31;1.42;;;1.33;;
60867;SDS011;46702;48.370;10.794;2022-11-24T13:25:31;4.75;;;1.23;;
60867;SDS011;46702;48.370;10.794;2022-11-24T13:27:51;0.60;;;0.60;;
60867;SDS011;46702;48.370;10.794;2022-11-24T13:32:59;2.00;;;0.80;;
60867;SDS011;46702;48.370;10.794;2022-11-24T13:35:37;1.27;;;1.05;;
60867;SDS011;46702;48.370;10.794;2022-11-24T13:41:07;0.30;;;0.30;;
60867;SDS011;46702;48.370;10.794;2022-11-24T13:43:34;0.40;;;0.40;;
60867;SDS011;46702;48.370;10.794;2022-11-24T13:46:01;0.63;;;0.63;;
60867;SDS011;46702;48.370;10.794;2022-11-24T13:58:38;0.70;;;0.70;;
60867;SDS011;46702;48.370;10.794;2022-11-24T14:01:13;1.00;;;1.00;;
60867;SDS011;46702;48.370;10.794;2022-11-24T14:08:55;2.13;;;0.80;;
60867;SDS011;46702;48.370;10.794;2022-11-24T14:11:28;3.08;;;1.75;;
60867;SDS011;46702;48.370;10.794;2022-11-24T14:13:54;9.85;;;5.28;;
60867;SDS011;46702;48.370;10.794;2022-11-24T14:16:20;3.25;;;1.60;;
60867;SDS011;46702;48.370;10.794;2022-11-24T14:18:47;2.05;;;1.10;;
60867;SDS011;46702;48.370;10.794;2022-11-24T14:23:58;1.48;;;0.80;;
60867;SDS011;46702;48.370;10.794;2022-11-24T14:26:34;1.20;;;0.82;;
60867;SDS011;46702;48.370;10.794;2022-11-24T14:29:12;1.02;;;0.90;;
60867;SDS011;46702;48.370;10.794;2022-11-24T14:31:40;20.17;;;13.80;;
60867;SDS011;46702;48.370;10.794;2022-11-24T14:34:16;7.85;;;4.43;;
60867;SDS011;46702;48.370;10.794;2022-11-24T14:39:12;1.88;;;1.30;;
60867;SDS011;46702;48.370;10.794;2022-11-24T14:41:39;1.17;;;1.08;;
60867;SDS011;46702;48.370;10.794;2022-11-24T14:46:44;4.20;;;1.50;;
60867;SDS011;46702;48.370;10.794;2022-11-24T14:49:15;2.85;;;1.52;;
60867;SDS011;46702;48.370;10.794;2022-11-24T14:51:42;3.22;;;1.10;;
60867;SDS011;46702;48.370;10.794;2022-11-24T14:54:13;46.25;;;20.90;;
60867;SDS011;46702;48.370;10.794;2022-11-24T14:57:00;58.53;;;31.63;;
60867;SDS011;46702;48.370;10.794;2022-11-24T14:59:29;38.40;;;22.70;;
60867;SDS011;46702;48.370;10.794;2022-11-24T15:01:58;7.13;;;5.25;;
60867;SDS011;46702;48.370;10.794;2022-11-24T15:04:31;9.07;;;6.03;;
60867;SDS011;46702;48.370;10.794;2022-11-24T15:07:01;5.38;;;3.17;;
60867;SDS011;46702;48.370;10.794;2022-11-24T15:09:51;4.15;;;2.72;;
60867;SDS011;46702;48.370;10.794;2022-11-24T15:12:28;2.53;;;2.05;;
60867;SDS011;46702;48.370;10.794;2022-11-24T15:15:20;2.83;;;2.08;;
60867;SDS011;46702;48.370;10.794;2022-11-24T15:17:51;3.80;;;2.10;;
60867;SDS011;46702;48.370;10.794;2022-11-24T15:23:11;11.52;;;4.57;;
60867;SDS011;46702;48.370;10.794;2022-11-24T15:25:45;17.65;;;8.32;;
60867;SDS011;46702;48.370;10.794;2022-11-24T15:28:12;27.77;;;11.70;;
60867;SDS011;46702;48.370;10.794;2022-11-24T15:30:37;28.58;;;14.68;;
60867;SDS011;46702;48.370;10.794;2022-11-24T15:33:10;30.50;;;17.35;;
60867;SDS011;46702;48.370;10.794;2022-11-24T15:35:41;12.95;;;6.30;;
60867;SDS011;46702;48.370;10.794;2022-11-24T15:38:07;11.57;;;6.45;;
60867;SDS011;46702;48.370;10.794;2022-11-24T15:40:32;7.30;;;4.03;;
60867;SDS011;46702;48.370;10.794;2022-11-24T15:42:58;6.78;;;3.90;;
60867;SDS011;46702;48.370;10.794;2022-11-24T15:45:24;5.05;;;4.03;;
60867;SDS011;46702;48.370;10.794;2022-11-24T15:47:50;5.55;;;3.00;;
60867;SDS011;46702;48.370;10.794;2022-11-24T15:50:16;3.90;;;3.15;;
60867;SDS011;46702;48.370;10.794;2022-11-24T15:52:42;7.53;;;3.85;;
60867;SDS011;46702;48.370;10.794;2022-11-24T15:55:11;5.32;;;4.18;;
60867;SDS011;46702;48.370;10.794;2022-11-24T15:57:43;5.45;;;3.72;;
60867;SDS011;46702;48.370;10.794;2022-11-24T16:00:13;5.68;;;4.05;;
60867;SDS011;46702;48.370;10.794;2022-11-24T16:02:40;8.07;;;4.10;;
60867;SDS011;46702;48.370;10.794;2022-11-24T16:05:06;6.35;;;3.53;;
60867;SDS011;46702;48.370;10.794;2022-11-24T16:07:32;3.78;;;3.13;;
60867;SDS011;46702;48.370;10.794;2022-11-24T16:09:57;4.10;;;2.90;;
60867;SDS011;46702;48.370;10.794;2022-11-24T16:12:23;4.68;;;3.33;;
60867;SDS011;46702;48.370;10.794;2022-11-24T16:14:49;6.68;;;3.90;;
60867;SDS011;46702;48.370;10.794;2022-11-24T16:17:14;7.35;;;4.22;;
60867;SDS011;46702;48.370;10.794;2022-11-24T16:19:40;10.63;;;6.90;;
60867;SDS011;46702;48.370;10.794;2022-11-24T16:22:05;4.15;;;2.80;;
60867;SDS011;46702;48.370;10.794;2022-11-24T16:24:32;3.25;;;2.80;;
60867;SDS011;46702;48.370;10.794;2022-11-24T16:26:57;4.95;;;3.55;;
60867;SDS011;46702;48.370;10.794;2022-11-24T16:29:23;6.47;;;3.97;;
60867;SDS011;46702;48.370;10.794;2022-11-24T16:31:52;6.80;;;4.05;;
60867;SDS011;46702;48.370;10.794;2022-11-24T16:34:18;5.28;;;4.47;;
60867;SDS011;46702;48.370;10.794;2022-11-24T16:36:43;5.63;;;3.90;;
60867;SDS011;46702;48.370;10.794;2022-11-24T16:39:09;3.92;;;3.53;;
60867;SDS011;46702;48.370;10.794;2022-11-24T16:41:34;5.25;;;3.65;;
60867;SDS011;46702;48.370;10.794;2022-11-24T16:44:00;3.65;;;3.28;;
60867;SDS011;46702;48.370;10.794;2022-11-24T16:46:25;4.82;;;3.33;;
60867;SDS011;46702;48.370;10.794;2022-11-24T16:48:52;7.28;;;3.90;;
60867;SDS011;46702;48.370;10.794;2022-11-24T16:51:19;6.90;;;4.15;;
60867;SDS011;46702;48.370;10.794;2022-11-24T16:53:47;6.70;;;3.83;;
60867;SDS011;46702;48.370;10.794;2022-11-24T16:56:20;7.65;;;4.38;;
60867;SDS011;46702;48.370;10.794;2022-11-24T16:58:45;6.55;;;4.18;;
60867;SDS011;46702;48.370;10.794;2022-11-24T17:01:11;4.53;;;3.42;;
60867;SDS011;46702;48.370;10.794;2022-11-24T17:03:37;4.80;;;4.10;;